sensor_id;sensor_type;location;lat;lon;timestamp;pressure;altitude;pressure_sealevel;temperature;humidity
15007;BME280;7599;50.748;13.142;2023-12-28T00:01:54;95425.34;;;14.58;50.35
15007;BME280;7599;50.748;13.142;2023-12-28T00:04:58;95404.44;;;14.55;50.38
15007;BME280;7599;50.748;13.142;2023-12-28T00:08:01;95412.56;;;14.55;49.90
15007;BME280;7599;50.748;13.142;2023-12-28T00:11:03;95412.88;;;14.53;50.12
15007;BME280;7599;50.748;13.142;2023-12-28T00:14:06;95402.03;;;14.50;50.21
15007;BME280;7599;50.748;13.142;2023-12-28T00:17:08;95393.53;;;14.51;49.87
15007;BME280;7599;50.748;13.142;2023-12-28T00:20:12;95380.72;;;14.48;50.12
15007;BME280;7599;50.748;13.142;2023-12-28T00:23:15;95371.78;;;14.48;50.21
15007;BME280;7599;50.748;13.142;2023-12-28T00:26:17;95377.13;;;14.44;49.88
15007;BME280;7599;50.748;13.142;2023-12-28T00:29:23;95384.09;;;14.45;50.07
15007;BME280;7599;50.748;13.142;2023-12-28T00:32:25;95377.13;;;14.44;49.95
15007;BME280;7599;50.748;13.142;2023-12-28T00:35:29;95373.63;;;14.44;49.85
15007;BME280;7599;50.748;13.142;2023-12-28T00:38:31;95358.91;;;14.41;49.61
15007;BME280;7599;50.748;13.142;2023-12-28T00:41:34;95365.00;;;14.38;49.98
15007;BME280;7599;50.748;13.142;2023-12-28T00:44:36;95367.03;;;14.41;50.03
15007;BME280;7599;50.748;13.142;2023-12-28T00:47:39;95376.97;;;14.37;49.82
15007;BME280;7599;50.748;13.142;2023-12-28T00:50:45;95387.00;;;14.37;49.78
15007;BME280;7599;50.748;13.142;2023-12-28T00:53:48;95388.91;;;14.36;49.83
15007;BME280;7599;50.748;13.142;2023-12-28T00:56:50;95384.63;;;14.35;49.70
15007;BME280;7599;50.748;13.142;2023-12-28T00:59:52;95385.78;;;14.34;49.99
15007;BME280;7599;50.748;13.142;2023-12-28T01:02:55;95375.31;;;14.32;49.74
15007;BME280;7599;50.748;13.142;2023-12-28T01:05:59;95367.53;;;14.31;49.58
15007;BME280;7599;50.748;13.142;2023-12-28T01:09:01;95375.22;;;14.29;49.94
15007;BME280;7599;50.748;13.142;2023-12-28T01:12:05;95378.72;;;14.29;49.42
15007;BME280;7599;50.748;13.142;2023-12-28T01:15:08;95377.94;;;14.29;49.50
15007;BME280;7599;50.748;13.142;2023-12-28T01:18:10;95383.34;;;14.29;49.86
15007;BME280;7599;50.748;13.142;2023-12-28T01:21:15;95388.31;;;14.27;49.40
15007;BME280;7599;50.748;13.142;2023-12-28T01:24:17;95382.47;;;14.25;49.54
15007;BME280;7599;50.748;13.142;2023-12-28T01:27:20;95378.22;;;14.24;49.63
15007;BME280;7599;50.748;13.142;2023-12-28T01:30:23;95380.03;;;14.20;49.95
15007;BME280;7599;50.748;13.142;2023-12-28T01:33:25;95382.38;;;14.21;49.79
15007;BME280;7599;50.748;13.142;2023-12-28T01:36:29;95387.00;;;14.21;49.99
15007;BME280;7599;50.748;13.142;2023-12-28T01:39:32;95386.22;;;14.20;49.81
15007;BME280;7599;50.748;13.142;2023-12-28T01:42:34;95379.16;;;14.16;49.78
15007;BME280;7599;50.748;13.142;2023-12-28T01:45:37;95379.94;;;14.16;49.82
15007;BME280;7599;50.748;13.142;2023-12-28T01:48:40;95373.31;;;14.14;49.53
15007;BME280;7599;50.748;13.142;2023-12-28T01:51:45;95368.69;;;14.14;49.44
15007;BME280;7599;50.748;13.142;2023-12-28T01:54:49;95360.94;;;14.13;49.75
15007;BME280;7599;50.748;13.142;2023-12-28T01:57:52;95348.41;;;14.04;49.54
15007;BME280;7599;50.748;13.142;2023-12-28T02:00:55;95350.03;;;14.09;49.71
15007;BME280;7599;50.748;13.142;2023-12-28T02:03:58;95356.59;;;14.08;49.95
15007;BME280;7599;50.748;13.142;2023-12-28T02:07:02;95348.84;;;14.06;49.71
15007;BME280;7599;50.748;13.142;2023-12-28T02:10:06;95333.75;;;14.05;49.54
15007;BME280;7599;50.748;13.142;2023-12-28T02:13:09;95332.19;;;14.04;49.79
15007;BME280;7599;50.748;13.142;2023-12-28T02:16:13;95329.06;;;14.02;49.36
15007;BME280;7599;50.748;13.142;2023-12-28T02:19:20;95337.16;;;14.02;49.44
15007;BME280;7599;50.748;13.142;2023-12-28T02:22:26;95347.53;;;14.00;49.69
15007;BME280;7599;50.748;13.142;2023-12-28T02:25:31;95343.25;;;13.99;49.51
15007;BME280;7599;50.748;13.142;2023-12-28T02:28:33;95342.81;;;13.97;50.01
15007;BME280;7599;50.748;13.142;2023-12-28T02:31:39;95352.84;;;13.97;49.44
15007;BME280;7599;50.748;13.142;2023-12-28T02:34:47;95352.06;;;13.96;49.61
15007;BME280;7599;50.748;13.142;2023-12-28T02:37:55;95363.22;;;13.95;49.99
15007;BME280;7599;50.748;13.142;2023-12-28T02:41:02;95365.91;;;13.95;49.71
15007;BME280;7599;50.748;13.142;2023-12-28T02:44:05;95362.78;;;13.93;49.75
15007;BME280;7599;50.748;13.142;2023-12-28T02:47:08;95357.31;;;13.89;49.69
15007;BME280;7599;50.748;13.142;2023-12-28T02:50:10;95356.06;;;13.87;49.94
15007;BME280;7599;50.748;13.142;2023-12-28T02:53:13;95357.31;;;13.89;49.60
15007;BME280;7599;50.748;13.142;2023-12-28T02:56:17;95360.34;;;13.88;49.53
15007;BME280;7599;50.748;13.142;2023-12-28T02:59:19;95358.41;;;13.88;50.00
15007;BME280;7599;50.748;13.142;2023-12-28T03:02:22;95354.50;;;13.86;49.66
15007;BME280;7599;50.748;13.142;2023-12-28T03:05:24;95351.03;;;13.85;49.91
15007;BME280;7599;50.748;13.142;2023-12-28T03:08:27;95364.16;;;13.87;49.50
15007;BME280;7599;50.748;13.142;2023-12-28T03:11:31;95350.56;;;13.83;49.52
15007;BME280;7599;50.748;13.142;2023-12-28T03:14:33;95348.22;;;13.81;49.65
15007;BME280;7599;50.748;13.142;2023-12-28T03:17:36;95358.25;;;13.81;49.78
15007;BME280;7599;50.748;13.142;2023-12-28T03:20:39;95367.47;;;13.80;49.83
15007;BME280;7599;50.748;13.142;2023-12-28T03:23:41;95376.72;;;13.79;50.01
15007;BME280;7599;50.748;13.142;2023-12-28T03:26:45;95382.47;;;13.77;49.71
15007;BME280;7599;50.748;13.142;2023-12-28T03:29:48;95398.66;;;13.77;50.02
15007;BME280;7599;50.748;13.142;2023-12-28T03:32:50;95417.94;;;13.76;49.67
15007;BME280;7599;50.748;13.142;2023-12-28T03:35:53;95410.16;;;13.74;49.54
15007;BME280;7599;50.748;13.142;2023-12-28T03:38:57;95417.38;;;13.70;49.72
15007;BME280;7599;50.748;13.142;2023-12-28T03:42:00;95427.84;;;13.72;50.04
15007;BME280;7599;50.748;13.142;2023-12-28T03:45:03;95421.69;;;13.71;50.14
15007;BME280;7599;50.748;13.142;2023-12-28T03:48:06;95422.00;;;13.70;50.10
15007;BME280;7599;50.748;13.142;2023-12-28T03:51:13;95431.25;;;13.69;49.70
15007;BME280;7599;50.748;13.142;2023-12-28T03:54:16;95421.56;;;13.68;49.87
15007;BME280;7599;50.748;13.142;2023-12-28T03:57:20;95413.47;;;13.68;49.93
15007;BME280;7599;50.748;13.142;2023-12-28T04:00:23;95406.84;;;13.65;50.00
15007;BME280;7599;50.748;13.142;2023-12-28T04:03:26;95414.16;;;13.65;49.86
15007;BME280;7599;50.748;13.142;2023-12-28T04:06:28;95414.59;;;13.67;49.80
15007;BME280;7599;50.748;13.142;2023-12-28T04:09:31;95398.47;;;13.70;49.78
15007;BME280;7599;50.748;13.142;2023-12-28T04:12:35;95397.13;;;13.76;49.56
15007;BME280;7599;50.748;13.142;2023-12-28T04:15:41;95396.94;;;13.85;49.30
15007;BME280;7599;50.748;13.142;2023-12-28T04:18:44;95396.41;;;13.95;48.95
15007;BME280;7599;50.748;13.142;2023-12-28T04:21:47;95399.03;;;14.07;49.00
15007;BME280;7599;50.748;13.142;2023-12-28T04:24:50;95413.69;;;14.22;48.88
15007;BME280;7599;50.748;13.142;2023-12-28T04:27:54;95414.03;;;14.37;48.98
15007;BME280;7599;50.748;13.142;2023-12-28T04:30:56;95422.50;;;14.51;48.78
15007;BME280;7599;50.748;13.142;2023-12-28T04:33:59;95414.34;;;14.67;48.43
15007;BME280;7599;50.748;13.142;2023-12-28T04:37:02;95392.59;;;14.79;48.17
15007;BME280;7599;50.748;13.142;2023-12-28T04:40:05;95378.94;;;14.91;47.61
15007;BME280;7599;50.748;13.142;2023-12-28T04:43:09;95374.97;;;15.04;47.91
15007;BME280;7599;50.748;13.142;2023-12-28T04:46:12;95372.91;;;15.17;47.51
15007;BME280;7599;50.748;13.142;2023-12-28T04:49:14;95344.13;;;15.28;47.10
15007;BME280;7599;50.748;13.142;2023-12-28T04:52:17;95354.00;;;15.40;46.82
15007;BME280;7599;50.748;13.142;2023-12-28T04:55:19;95357.63;;;15.48;47.11
15007;BME280;7599;50.748;13.142;2023-12-28T04:58:23;95359.75;;;15.58;47.02
15007;BME280;7599;50.748;13.142;2023-12-28T05:01:26;95376.84;;;15.62;47.00
15007;BME280;7599;50.748;13.142;2023-12-28T05:04:32;95362.53;;;15.62;46.45
15007;BME280;7599;50.748;13.142;2023-12-28T05:07:35;95378.50;;;15.67;46.62
15007;BME280;7599;50.748;13.142;2023-12-28T05:10:37;95386.28;;;15.68;46.34
15007;BME280;7599;50.748;13.142;2023-12-28T05:13:41;95399.06;;;15.68;46.32
15007;BME280;7599;50.748;13.142;2023-12-28T05:16:43;95396.34;;;15.68;46.63
15007;BME280;7599;50.748;13.142;2023-12-28T05:19:46;95388.16;;;15.64;46.40
15007;BME280;7599;50.748;13.142;2023-12-28T05:22:49;95404.41;;;15.64;46.83
15007;BME280;7599;50.748;13.142;2023-12-28T05:25:52;95406.66;;;15.62;46.82
15007;BME280;7599;50.748;13.142;2023-12-28T05:28:55;95407.38;;;15.59;46.59
15007;BME280;7599;50.748;13.142;2023-12-28T05:31:58;95413.13;;;15.57;46.56
15007;BME280;7599;50.748;13.142;2023-12-28T05:35:00;95406.88;;;15.53;46.89
15007;BME280;7599;50.748;13.142;2023-12-28T05:38:04;95419.56;;;15.49;46.78
15007;BME280;7599;50.748;13.142;2023-12-28T05:41:09;95409.81;;;15.45;47.21
15007;BME280;7599;50.748;13.142;2023-12-28T05:44:13;95411.66;;;15.41;46.77
15007;BME280;7599;50.748;13.142;2023-12-28T05:47:16;95429.41;;;15.38;47.21
15007;BME280;7599;50.748;13.142;2023-12-28T05:50:18;95430.03;;;15.31;46.84
15007;BME280;7599;50.748;13.142;2023-12-28T05:53:21;95440.88;;;15.31;46.88
15007;BME280;7599;50.748;13.142;2023-12-28T05:56:24;95427.69;;;15.30;46.96
15007;BME280;7599;50.748;13.142;2023-12-28T05:59:27;95439.59;;;15.25;47.15
15007;BME280;7599;50.748;13.142;2023-12-28T06:02:30;95439.50;;;15.22;47.58
15007;BME280;7599;50.748;13.142;2023-12-28T06:05:32;95462.66;;;15.19;47.05
15007;BME280;7599;50.748;13.142;2023-12-28T06:08:35;95459.91;;;15.16;47.41
15007;BME280;7599;50.748;13.142;2023-12-28T06:11:37;95449.78;;;15.13;47.48
15007;BME280;7599;50.748;13.142;2023-12-28T06:14:41;95449.69;;;15.09;47.70
15007;BME280;7599;50.748;13.142;2023-12-28T06:17:44;95470.13;;;15.06;47.70
15007;BME280;7599;50.748;13.142;2023-12-28T06:20:46;95467.00;;;15.04;47.53
15007;BME280;7599;50.748;13.142;2023-12-28T06:23:49;95459.22;;;15.03;47.87
15007;BME280;7599;50.748;13.142;2023-12-28T06:26:51;95465.78;;;15.02;47.89
15007;BME280;7599;50.748;13.142;2023-12-28T06:29:55;95462.91;;;14.95;47.70
15007;BME280;7599;50.748;13.142;2023-12-28T06:32:58;95473.38;;;14.96;47.92
15007;BME280;7599;50.748;13.142;2023-12-28T06:36:05;95481.34;;;14.89;47.77
15007;BME280;7599;50.748;13.142;2023-12-28T06:39:07;95476.34;;;14.91;47.86
15007;BME280;7599;50.748;13.142;2023-12-28T06:42:10;95463.53;;;14.88;47.76
15007;BME280;7599;50.748;13.142;2023-12-28T06:45:14;95471.63;;;14.88;48.02
15007;BME280;7599;50.748;13.142;2023-12-28T06:48:16;95472.78;;;14.87;48.00
15007;BME280;7599;50.748;13.142;2023-12-28T06:51:20;95483.19;;;14.85;48.08
15007;BME280;7599;50.748;13.142;2023-12-28T06:54:24;95480.81;;;14.83;47.69
15007;BME280;7599;50.748;13.142;2023-12-28T06:57:26;95495.47;;;14.82;48.13
15007;BME280;7599;50.748;13.142;2023-12-28T07:00:30;95478.84;;;14.80;47.67
15007;BME280;7599;50.748;13.142;2023-12-28T07:03:33;95484.56;;;14.79;48.23
15007;BME280;7599;50.748;13.142;2023-12-28T07:06:36;95481.78;;;14.75;47.89
15007;BME280;7599;50.748;13.142;2023-12-28T07:09:38;95485.31;;;14.76;48.15
15007;BME280;7599;50.748;13.142;2023-12-28T07:12:41;95486.41;;;14.75;47.68
15007;BME280;7599;50.748;13.142;2023-12-28T07:15:45;95490.63;;;14.72;48.06
15007;BME280;7599;50.748;13.142;2023-12-28T07:18:47;95481.97;;;14.67;48.09
15007;BME280;7599;50.748;13.142;2023-12-28T07:21:50;95480.50;;;14.69;48.09
15007;BME280;7599;50.748;13.142;2023-12-28T07:24:52;95485.53;;;14.71;48.12
15007;BME280;7599;50.748;13.142;2023-12-28T07:27:55;95465.81;;;14.70;48.42
15007;BME280;7599;50.748;13.142;2023-12-28T07:31:00;95462.69;;;14.68;47.87
15007;BME280;7599;50.748;13.142;2023-12-28T07:34:02;95478.94;;;14.68;47.96
15007;BME280;7599;50.748;13.142;2023-12-28T07:37:05;95487.31;;;14.63;48.92
15007;BME280;7599;50.748;13.142;2023-12-28T07:40:08;95494.09;;;14.73;48.54
15007;BME280;7599;50.748;13.142;2023-12-28T07:43:11;95487.81;;;14.85;47.96
15007;BME280;7599;50.748;13.142;2023-12-28T07:46:14;95474.16;;;14.97;47.73
15007;BME280;7599;50.748;13.142;2023-12-28T07:49:17;95472.19;;;15.13;47.68
15007;BME280;7599;50.748;13.142;2023-12-28T07:52:19;95477.13;;;15.27;47.43
15007;BME280;7599;50.748;13.142;2023-12-28T07:55:22;95490.19;;;15.41;46.96
15007;BME280;7599;50.748;13.142;2023-12-28T07:58:25;95481.44;;;15.47;46.94
15007;BME280;7599;50.748;13.142;2023-12-28T08:01:29;95482.50;;;15.62;46.64
15007;BME280;7599;50.748;13.142;2023-12-28T08:04:34;95481.59;;;15.74;46.51
15007;BME280;7599;50.748;13.142;2023-12-28T08:07:37;95483.31;;;15.82;46.67
15007;BME280;7599;50.748;13.142;2023-12-28T08:10:39;95496.28;;;15.92;46.33
15007;BME280;7599;50.748;13.142;2023-12-28T08:13:42;95512.59;;;15.96;46.63
15007;BME280;7599;50.748;13.142;2023-12-28T08:16:45;95518.59;;;16.05;46.53
15007;BME280;7599;50.748;13.142;2023-12-28T08:19:48;95514.94;;;16.17;46.99
15007;BME280;7599;50.748;13.142;2023-12-28T08:22:51;95503.88;;;16.25;46.54
15007;BME280;7599;50.748;13.142;2023-12-28T08:26:13;95518.81;;;16.39;46.47
15007;BME280;7599;50.748;13.142;2023-12-28T08:29:16;95510.91;;;16.53;46.85
15007;BME280;7599;50.748;13.142;2023-12-28T08:32:20;95507.25;;;16.65;47.17
15007;BME280;7599;50.748;13.142;2023-12-28T08:35:23;95506.66;;;16.75;46.98
15007;BME280;7599;50.748;13.142;2023-12-28T08:38:25;95513.41;;;16.84;47.00
15007;BME280;7599;50.748;13.142;2023-12-28T08:41:28;95522.88;;;16.94;47.19
15007;BME280;7599;50.748;13.142;2023-12-28T08:44:30;95526.13;;;17.03;46.75
15007;BME280;7599;50.748;13.142;2023-12-28T08:47:35;95527.72;;;17.08;46.74
15007;BME280;7599;50.748;13.142;2023-12-28T08:50:37;95538.34;;;17.17;46.57
15007;BME280;7599;50.748;13.142;2023-12-28T08:53:40;95542.28;;;17.23;46.62
15007;BME280;7599;50.748;13.142;2023-12-28T08:56:43;95536.88;;;17.23;46.11
15007;BME280;7599;50.748;13.142;2023-12-28T08:59:47;95544.34;;;17.29;45.80
15007;BME280;7599;50.748;13.142;2023-12-28T09:02:51;95538.22;;;17.36;46.14
15007;BME280;7599;50.748;13.142;2023-12-28T09:05:54;95542.97;;;17.43;45.92
15007;BME280;7599;50.748;13.142;2023-12-28T09:08:56;95547.72;;;17.49;45.47
15007;BME280;7599;50.748;13.142;2023-12-28T09:11:59;95541.59;;;17.56;46.00
15007;BME280;7599;50.748;13.142;2023-12-28T09:15:01;95542.06;;;17.62;45.41
15007;BME280;7599;50.748;13.142;2023-12-28T09:18:05;95541.78;;;17.70;45.86
15007;BME280;7599;50.748;13.142;2023-12-28T09:21:09;95548.91;;;17.78;45.45
15007;BME280;7599;50.748;13.142;2023-12-28T09:24:11;95542.03;;;17.88;45.43
15007;BME280;7599;50.748;13.142;2023-12-28T09:27:14;95540.16;;;17.92;45.86
15007;BME280;7599;50.748;13.142;2023-12-28T09:30:17;95543.69;;;17.96;45.71
15007;BME280;7599;50.748;13.142;2023-12-28T09:33:21;95545.34;;;18.04;46.09
15007;BME280;7599;50.748;13.142;2023-12-28T09:36:24;95540.28;;;18.03;45.45
15007;BME280;7599;50.748;13.142;2023-12-28T09:39:26;95521.97;;;18.00;45.49
15007;BME280;7599;50.748;13.142;2023-12-28T09:42:37;95528.25;;;18.04;45.03
15007;BME280;7599;50.748;13.142;2023-12-28T09:45:42;95531.06;;;18.11;45.09
15007;BME280;7599;50.748;13.142;2023-12-28T09:48:46;95524.47;;;18.12;45.32
15007;BME280;7599;50.748;13.142;2023-12-28T09:51:49;95526.09;;;18.20;45.16
15007;BME280;7599;50.748;13.142;2023-12-28T09:54:52;95521.06;;;18.22;45.28
15007;BME280;7599;50.748;13.142;2023-12-28T09:57:55;95514.50;;;18.27;45.26
15007;BME280;7599;50.748;13.142;2023-12-28T10:01:00;95513.03;;;18.33;45.25
15007;BME280;7599;50.748;13.142;2023-12-28T10:04:04;95515.31;;;18.31;45.20
15007;BME280;7599;50.748;13.142;2023-12-28T10:07:09;95513.03;;;18.33;45.12
15007;BME280;7599;50.748;13.142;2023-12-28T10:10:12;95512.69;;;18.38;44.99
15007;BME280;7599;50.748;13.142;2023-12-28T10:13:14;95507.59;;;18.37;44.71
15007;BME280;7599;50.748;13.142;2023-12-28T10:16:17;95524.00;;;18.44;44.67
15007;BME280;7599;50.748;13.142;2023-12-28T10:19:22;95522.84;;;18.45;44.62
15007;BME280;7599;50.748;13.142;2023-12-28T10:22:25;95530.66;;;18.46;44.57
15007;BME280;7599;50.748;13.142;2023-12-28T10:25:28;95530.66;;;18.50;44.87
15007;BME280;7599;50.748;13.142;2023-12-28T10:28:31;95533.41;;;18.53;44.78
15007;BME280;7599;50.748;13.142;2023-12-28T10:31:34;95522.56;;;18.57;44.48
15007;BME280;7599;50.748;13.142;2023-12-28T10:34:38;95516.75;;;18.58;44.56
15007;BME280;7599;50.748;13.142;2023-12-28T10:37:42;95500.78;;;18.57;44.52
15007;BME280;7599;50.748;13.142;2023-12-28T10:40:47;95510.97;;;18.64;44.37
15007;BME280;7599;50.748;13.142;2023-12-28T10:43:56;95494.66;;;18.64;44.06
15007;BME280;7599;50.748;13.142;2023-12-28T10:47:15;95502.47;;;18.69;43.98
15007;BME280;7599;50.748;13.142;2023-12-28T10:50:19;95497.84;;;18.73;43.92
15007;BME280;7599;50.748;13.142;2023-12-28T10:53:32;95494.38;;;18.76;44.18
15007;BME280;7599;50.748;13.142;2023-12-28T10:56:41;95494.38;;;18.76;43.97
15007;BME280;7599;50.748;13.142;2023-12-28T10:59:54;95498.66;;;18.77;44.03
15007;BME280;7599;50.748;13.142;2023-12-28T11:03:05;95502.22;;;18.84;43.85
15007;BME280;7599;50.748;13.142;2023-12-28T11:06:14;95498.72;;;18.84;43.65
15007;BME280;7599;50.748;13.142;2023-12-28T11:09:20;95491.72;;;18.83;43.79
15007;BME280;7599;50.748;13.142;2023-12-28T11:12:25;95496.75;;;18.81;43.71
15007;BME280;7599;50.748;13.142;2023-12-28T11:15:29;95500.63;;;18.80;43.89
15007;BME280;7599;50.748;13.142;2023-12-28T11:18:33;95493.22;;;18.80;44.35
15007;BME280;7599;50.748;13.142;2023-12-28T11:21:38;95498.31;;;18.82;44.04
15007;BME280;7599;50.748;13.142;2023-12-28T11:24:41;95499.53;;;18.88;43.97
15007;BME280;7599;50.748;13.142;2023-12-28T11:27:44;95492.56;;;18.91;44.00
15007;BME280;7599;50.748;13.142;2023-12-28T11:30:47;95479.75;;;18.95;43.95
15007;BME280;7599;50.748;13.142;2023-12-28T11:33:51;95481.72;;;19.01;43.70
15007;BME280;7599;50.748;13.142;2023-12-28T11:36:58;95485.25;;;19.05;43.93
15007;BME280;7599;50.748;13.142;2023-12-28T11:40:10;95478.28;;;19.08;43.68
15007;BME280;7599;50.748;13.142;2023-12-28T11:43:18;95484.50;;;19.08;43.63
15007;BME280;7599;50.748;13.142;2023-12-28T11:46:21;95491.13;;;19.11;43.85
15007;BME280;7599;50.748;13.142;2023-12-28T11:49:27;95481.38;;;19.10;43.57
15007;BME280;7599;50.748;13.142;2023-12-28T11:52:32;95480.25;;;19.15;43.51
15007;BME280;7599;50.748;13.142;2023-12-28T11:55:35;95485.31;;;19.13;43.56
15007;BME280;7599;50.748;13.142;2023-12-28T11:58:37;95479.88;;;19.16;43.50
15007;BME280;7599;50.748;13.142;2023-12-28T12:01:40;95476.38;;;19.19;43.93
15007;BME280;7599;50.748;13.142;2023-12-28T12:04:43;95477.56;;;19.22;43.99
15007;BME280;7599;50.748;13.142;2023-12-28T12:07:48;95463.53;;;19.20;43.66
15007;BME280;7599;50.748;13.142;2023-12-28T12:10:59;95463.94;;;19.22;43.70
15007;BME280;7599;50.748;13.142;2023-12-28T12:14:02;95474.88;;;19.25;43.61
15007;BME280;7599;50.748;13.142;2023-12-28T12:17:07;95467.88;;;19.28;43.83
15007;BME280;7599;50.748;13.142;2023-12-28T12:20:10;95479.19;;;19.30;43.26
15007;BME280;7599;50.748;13.142;2023-12-28T12:23:14;95477.63;;;19.32;43.67
15007;BME280;7599;50.748;13.142;2023-12-28T12:26:18;95470.63;;;19.31;43.22
15007;BME280;7599;50.748;13.142;2023-12-28T12:29:20;95477.28;;;19.38;43.24
15007;BME280;7599;50.748;13.142;2023-12-28T12:32:30;95472.63;;;19.42;43.40
15007;BME280;7599;50.748;13.142;2023-12-28T12:35:33;95472.63;;;19.38;43.32
15007;BME280;7599;50.748;13.142;2023-12-28T12:38:37;95481.97;;;19.44;43.40
15007;BME280;7599;50.748;13.142;2023-12-28T12:41:39;95478.09;;;19.45;43.64
15007;BME280;7599;50.748;13.142;2023-12-28T12:44:42;95494.47;;;19.49;43.13
15007;BME280;7599;50.748;13.142;2023-12-28T12:47:46;95483.97;;;19.51;43.60
15007;BME280;7599;50.748;13.142;2023-12-28T12:50:49;95485.53;;;19.52;43.05
15007;BME280;7599;50.748;13.142;2023-12-28T12:53:56;95478.50;;;19.54;43.34
15007;BME280;7599;50.748;13.142;2023-12-28T12:56:59;95480.47;;;19.57;43.36
15007;BME280;7599;50.748;13.142;2023-12-28T13:00:03;95478.53;;;19.58;43.26
15007;BME280;7599;50.748;13.142;2023-12-28T13:03:09;95473.50;;;19.60;42.98
15007;BME280;7599;50.748;13.142;2023-12-28T13:06:11;95480.13;;;19.63;43.47
15007;BME280;7599;50.748;13.142;2023-12-28T13:09:16;95484.44;;;19.64;43.33
15007;BME280;7599;50.748;13.142;2023-12-28T13:12:18;95469.66;;;19.65;43.07
15007;BME280;7599;50.748;13.142;2023-12-28T13:15:21;95470.03;;;19.67;43.33
15007;BME280;7599;50.748;13.142;2023-12-28T13:18:24;95472.41;;;19.68;43.06
15007;BME280;7599;50.748;13.142;2023-12-28T13:21:27;95461.84;;;19.67;42.97
15007;BME280;7599;50.748;13.142;2023-12-28T13:24:30;95466.16;;;19.71;43.27
15007;BME280;7599;50.748;13.142;2023-12-28T13:27:33;95469.28;;;19.70;42.93
15007;BME280;7599;50.748;13.142;2023-12-28T13:30:36;95477.84;;;19.72;43.00
15007;BME280;7599;50.748;13.142;2023-12-28T13:33:39;95481.38;;;19.76;43.22
15007;BME280;7599;50.748;13.142;2023-12-28T13:36:41;95479.06;;;19.78;43.37
15007;BME280;7599;50.748;13.142;2023-12-28T13:39:45;95483.72;;;19.77;42.88
15007;BME280;7599;50.748;13.142;2023-12-28T13:42:48;95484.91;;;19.83;42.76
15007;BME280;7599;50.748;13.142;2023-12-28T13:45:51;95486.47;;;19.84;43.14
15007;BME280;7599;50.748;13.142;2023-12-28T13:48:54;95480.22;;;19.77;43.28
15007;BME280;7599;50.748;13.142;2023-12-28T13:51:59;95485.66;;;19.80;43.04
15007;BME280;7599;50.748;13.142;2023-12-28T13:55:04;95490.75;;;19.82;43.00
15007;BME280;7599;50.748;13.142;2023-12-28T13:58:09;95479.44;;;19.83;43.31
15007;BME280;7599;50.748;13.142;2023-12-28T14:01:12;95483.75;;;19.88;43.26
15007;BME280;7599;50.748;13.142;2023-12-28T14:04:15;95489.63;;;19.90;42.74
15007;BME280;7599;50.748;13.142;2023-12-28T14:07:18;95483.38;;;19.93;42.70
15007;BME280;7599;50.748;13.142;2023-12-28T14:10:22;95483.38;;;19.93;42.93
15007;BME280;7599;50.748;13.142;2023-12-28T14:13:25;95470.94;;;19.96;42.92
15007;BME280;7599;50.748;13.142;2023-12-28T14:16:28;95468.19;;;19.96;42.91
15007;BME280;7599;50.748;13.142;2023-12-28T14:19:31;95474.44;;;20.00;43.29
15007;BME280;7599;50.748;13.142;2023-12-28T14:22:34;95466.63;;;20.02;43.04
15007;BME280;7599;50.748;13.142;2023-12-28T14:25:38;95471.34;;;20.05;42.65
15007;BME280;7599;50.748;13.142;2023-12-28T14:28:42;95456.13;;;20.00;42.64
15007;BME280;7599;50.748;13.142;2023-12-28T14:31:45;95460.81;;;20.03;43.08
15007;BME280;7599;50.748;13.142;2023-12-28T14:34:49;95459.66;;;20.08;43.02
15007;BME280;7599;50.748;13.142;2023-12-28T14:37:54;95454.97;;;20.08;43.00
15007;BME280;7599;50.748;13.142;2023-12-28T14:40:58;95455.75;;;20.09;42.68
15007;BME280;7599;50.748;13.142;2023-12-28T14:44:01;95462.78;;;20.14;43.02
15007;BME280;7599;50.748;13.142;2023-12-28T14:47:04;95460.44;;;20.08;43.28
15007;BME280;7599;50.748;13.142;2023-12-28T14:50:07;95464.31;;;20.11;43.01
15007;BME280;7599;50.748;13.142;2023-12-28T14:53:09;95462.00;;;20.13;42.71
15007;BME280;7599;50.748;13.142;2023-12-28T14:56:14;95465.50;;;20.14;42.84
15007;BME280;7599;50.748;13.142;2023-12-28T14:59:18;95454.22;;;20.19;42.96
15007;BME280;7599;50.748;13.142;2023-12-28T15:02:24;95444.84;;;20.20;42.47
15007;BME280;7599;50.748;13.142;2023-12-28T15:05:26;95444.88;;;20.23;43.01
15007;BME280;7599;50.748;13.142;2023-12-28T15:08:29;95448.75;;;20.22;42.86
15007;BME280;7599;50.748;13.142;2023-12-28T15:11:34;95445.28;;;20.25;42.74
15007;BME280;7599;50.748;13.142;2023-12-28T15:14:49;95448.38;;;20.31;42.69
15007;BME280;7599;50.748;13.142;2023-12-28T15:17:53;95437.09;;;20.29;42.53
15007;BME280;7599;50.748;13.142;2023-12-28T15:20:57;95429.28;;;20.31;42.65
15007;BME280;7599;50.748;13.142;2023-12-28T15:24:00;95434.34;;;20.36;42.73
15007;BME280;7599;50.748;13.142;2023-12-28T15:27:04;95435.91;;;20.37;42.59
15007;BME280;7599;50.748;13.142;2023-12-28T15:30:09;95428.13;;;20.39;42.37
15007;BME280;7599;50.748;13.142;2023-12-28T15:33:11;95428.13;;;20.43;42.63
15007;BME280;7599;50.748;13.142;2023-12-28T15:36:14;95425.41;;;20.43;42.40
15007;BME280;7599;50.748;13.142;2023-12-28T15:39:17;95422.28;;;20.44;42.88
15007;BME280;7599;50.748;13.142;2023-12-28T15:42:21;95416.44;;;20.42;42.86
15007;BME280;7599;50.748;13.142;2023-12-28T15:45:23;95418.78;;;20.47;42.74
15007;BME280;7599;50.748;13.142;2023-12-28T15:48:28;95411.75;;;20.46;42.53
15007;BME280;7599;50.748;13.142;2023-12-28T15:51:31;95399.28;;;20.49;42.37
15007;BME280;7599;50.748;13.142;2023-12-28T15:54:35;95399.69;;;20.51;42.51
15007;BME280;7599;50.748;13.142;2023-12-28T15:57:40;95402.81;;;20.56;42.63
15007;BME280;7599;50.748;13.142;2023-12-28T16:00:43;95402.03;;;20.56;42.41
15007;BME280;7599;50.748;13.142;2023-12-28T16:03:46;95400.84;;;20.61;42.34
15007;BME280;7599;50.748;13.142;2023-12-28T16:06:49;95401.22;;;20.63;42.46
15007;BME280;7599;50.748;13.142;2023-12-28T16:09:52;95399.69;;;20.65;42.52
15007;BME280;7599;50.748;13.142;2023-12-28T16:12:56;95393.81;;;20.67;42.59